LFR weather

La Fria Airport
Tachira, Venezuela

Public forecast

Using degrees Celsius for public forecast. Weather courtesy of forecast.io.

METAR (pilot weather report)

Report is more than 6 hours old.

Retrieved 2017/09/20 18:00 UTC (2 years ago):

SVLF 201800Z 00000KT 9999 SCT040 XX/XX Q1010

TAF (pilot weather forecast)

Closest forecast is Camilo Daza International Airport, 23.5 nm (43.6 km) SW. Retrieved 2019/06/19 12:45 UTC (4 hours ago):

TAF SKCC 191030Z 1912/2012 18012KT 9999 SCT023 SCT090 TEMPO 1921/1924 SCT018TCU TX34/1919Z TN25/2011Z